sensor_id;sensor_type;location;lat;lon;timestamp;P1;durP1;ratioP1;P2;durP2;ratioP2
12042;SDS011;6082;49.306;12.862;2023-03-09T00:01:58;0.70;;;0.40;;
12042;SDS011;6082;49.306;12.862;2023-03-09T00:04:25;0.40;;;0.40;;
12042;SDS011;6082;49.306;12.862;2023-03-09T00:06:51;0.90;;;0.43;;
12042;SDS011;6082;49.306;12.862;2023-03-09T00:09:17;1.13;;;0.60;;
12042;SDS011;6082;49.306;12.862;2023-03-09T00:11:44;1.40;;;0.70;;
12042;SDS011;6082;49.306;12.862;2023-03-09T00:14:12;0.67;;;0.67;;
12042;SDS011;6082;49.306;12.862;2023-03-09T00:16:39;0.60;;;0.60;;
12042;SDS011;6082;49.306;12.862;2023-03-09T00:19:05;0.57;;;0.53;;
12042;SDS011;6082;49.306;12.862;2023-03-09T00:21:32;0.63;;;0.40;;
12042;SDS011;6082;49.306;12.862;2023-03-09T00:26:32;2.17;;;0.50;;
12042;SDS011;6082;49.306;12.862;2023-03-09T00:28:59;0.47;;;0.43;;
12042;SDS011;6082;49.306;12.862;2023-03-09T00:31:25;0.43;;;0.43;;
12042;SDS011;6082;49.306;12.862;2023-03-09T00:33:51;0.60;;;0.60;;
12042;SDS011;6082;49.306;12.862;2023-03-09T00:36:17;1.50;;;0.83;;
12042;SDS011;6082;49.306;12.862;2023-03-09T00:38:43;0.67;;;0.67;;
12042;SDS011;6082;49.306;12.862;2023-03-09T00:41:14;1.37;;;0.70;;
12042;SDS011;6082;49.306;12.862;2023-03-09T00:43:40;1.30;;;1.10;;
12042;SDS011;6082;49.306;12.862;2023-03-09T00:46:06;1.90;;;1.23;;
12042;SDS011;6082;49.306;12.862;2023-03-09T00:48:32;1.37;;;1.10;;
12042;SDS011;6082;49.306;12.862;2023-03-09T00:50:58;2.03;;;1.47;;
12042;SDS011;6082;49.306;12.862;2023-03-09T00:53:24;1.97;;;1.20;;
12042;SDS011;6082;49.306;12.862;2023-03-09T00:55:50;1.57;;;1.20;;
12042;SDS011;6082;49.306;12.862;2023-03-09T00:58:16;1.37;;;0.97;;
12042;SDS011;6082;49.306;12.862;2023-03-09T01:00:42;1.33;;;0.97;;
12042;SDS011;6082;49.306;12.862;2023-03-09T01:03:08;1.20;;;0.97;;
12042;SDS011;6082;49.306;12.862;2023-03-09T01:05:36;1.20;;;1.10;;
12042;SDS011;6082;49.306;12.862;2023-03-09T01:08:02;1.00;;;0.90;;
12042;SDS011;6082;49.306;12.862;2023-03-09T01:10:28;1.17;;;0.80;;
12042;SDS011;6082;49.306;12.862;2023-03-09T01:12:54;1.23;;;0.60;;
12042;SDS011;6082;49.306;12.862;2023-03-09T01:15:20;1.60;;;0.80;;
12042;SDS011;6082;49.306;12.862;2023-03-09T01:17:46;0.93;;;0.80;;
12042;SDS011;6082;49.306;12.862;2023-03-09T01:20:12;0.80;;;0.60;;
12042;SDS011;6082;49.306;12.862;2023-03-09T01:22:39;0.67;;;0.63;;
12042;SDS011;6082;49.306;12.862;2023-03-09T01:25:05;0.80;;;0.50;;
12042;SDS011;6082;49.306;12.862;2023-03-09T01:27:32;0.77;;;0.40;;
12042;SDS011;6082;49.306;12.862;2023-03-09T01:29:58;0.80;;;0.67;;
12042;SDS011;6082;49.306;12.862;2023-03-09T01:32:24;0.40;;;0.40;;
12042;SDS011;6082;49.306;12.862;2023-03-09T01:34:51;0.50;;;0.47;;
12042;SDS011;6082;49.306;12.862;2023-03-09T01:37:18;0.50;;;0.50;;
12042;SDS011;6082;49.306;12.862;2023-03-09T01:39:44;0.80;;;0.50;;
12042;SDS011;6082;49.306;12.862;2023-03-09T01:42:10;0.83;;;0.57;;
12042;SDS011;6082;49.306;12.862;2023-03-09T01:44:36;0.90;;;0.60;;
12042;SDS011;6082;49.306;12.862;2023-03-09T01:47:02;1.03;;;0.60;;
12042;SDS011;6082;49.306;12.862;2023-03-09T01:49:45;0.70;;;0.70;;
12042;SDS011;6082;49.306;12.862;2023-03-09T01:54:49;1.47;;;0.60;;
12042;SDS011;6082;49.306;12.862;2023-03-09T01:57:24;1.27;;;0.70;;
12042;SDS011;6082;49.306;12.862;2023-03-09T01:59:53;0.67;;;0.60;;
12042;SDS011;6082;49.306;12.862;2023-03-09T02:02:20;1.30;;;0.80;;
12042;SDS011;6082;49.306;12.862;2023-03-09T02:04:50;1.50;;;0.87;;
12042;SDS011;6082;49.306;12.862;2023-03-09T02:07:17;1.50;;;0.93;;
12042;SDS011;6082;49.306;12.862;2023-03-09T02:12:17;1.97;;;1.10;;
12042;SDS011;6082;49.306;12.862;2023-03-09T02:14:44;1.67;;;1.20;;
12042;SDS011;6082;49.306;12.862;2023-03-09T02:17:11;1.50;;;1.20;;
12042;SDS011;6082;49.306;12.862;2023-03-09T02:19:47;2.50;;;1.43;;
12042;SDS011;6082;49.306;12.862;2023-03-09T02:22:15;2.67;;;1.47;;
12042;SDS011;6082;49.306;12.862;2023-03-09T02:27:20;3.43;;;1.20;;
12042;SDS011;6082;49.306;12.862;2023-03-09T02:29:47;1.33;;;1.23;;
12042;SDS011;6082;49.306;12.862;2023-03-09T02:32:14;2.10;;;1.07;;
12042;SDS011;6082;49.306;12.862;2023-03-09T02:34:40;1.87;;;1.37;;
12042;SDS011;6082;49.306;12.862;2023-03-09T02:39:47;2.67;;;1.40;;
12042;SDS011;6082;49.306;12.862;2023-03-09T02:42:15;2.03;;;1.50;;
12042;SDS011;6082;49.306;12.862;2023-03-09T02:44:42;2.53;;;1.70;;
12042;SDS011;6082;49.306;12.862;2023-03-09T02:47:09;2.53;;;1.50;;
12042;SDS011;6082;49.306;12.862;2023-03-09T02:49:36;1.47;;;1.23;;
12042;SDS011;6082;49.306;12.862;2023-03-09T02:52:02;2.77;;;1.90;;
12042;SDS011;6082;49.306;12.862;2023-03-09T02:54:28;2.50;;;1.87;;
12042;SDS011;6082;49.306;12.862;2023-03-09T02:56:54;2.20;;;1.50;;
12042;SDS011;6082;49.306;12.862;2023-03-09T02:59:20;3.33;;;1.93;;
12042;SDS011;6082;49.306;12.862;2023-03-09T03:01:46;2.80;;;1.27;;
12042;SDS011;6082;49.306;12.862;2023-03-09T03:04:12;2.97;;;1.20;;
12042;SDS011;6082;49.306;12.862;2023-03-09T03:06:38;1.60;;;1.23;;
12042;SDS011;6082;49.306;12.862;2023-03-09T03:09:05;3.17;;;1.67;;
12042;SDS011;6082;49.306;12.862;2023-03-09T03:11:31;3.70;;;1.43;;
12042;SDS011;6082;49.306;12.862;2023-03-09T03:13:57;2.00;;;1.30;;
12042;SDS011;6082;49.306;12.862;2023-03-09T03:16:24;3.47;;;1.20;;
12042;SDS011;6082;49.306;12.862;2023-03-09T03:18:50;1.20;;;1.07;;
12042;SDS011;6082;49.306;12.862;2023-03-09T03:21:17;1.10;;;0.80;;
12042;SDS011;6082;49.306;12.862;2023-03-09T03:23:43;1.13;;;0.90;;
12042;SDS011;6082;49.306;12.862;2023-03-09T03:26:09;1.00;;;0.90;;
12042;SDS011;6082;49.306;12.862;2023-03-09T03:28:35;4.47;;;0.90;;
12042;SDS011;6082;49.306;12.862;2023-03-09T03:31:02;1.57;;;0.80;;
12042;SDS011;6082;49.306;12.862;2023-03-09T03:33:28;1.37;;;0.90;;
12042;SDS011;6082;49.306;12.862;2023-03-09T03:35:55;2.97;;;0.80;;
12042;SDS011;6082;49.306;12.862;2023-03-09T03:38:21;1.53;;;0.70;;
12042;SDS011;6082;49.306;12.862;2023-03-09T03:40:47;0.60;;;0.60;;
12042;SDS011;6082;49.306;12.862;2023-03-09T03:43:14;0.40;;;0.40;;
12042;SDS011;6082;49.306;12.862;2023-03-09T03:45:40;1.13;;;0.80;;
12042;SDS011;6082;49.306;12.862;2023-03-09T03:48:06;0.47;;;0.47;;
12042;SDS011;6082;49.306;12.862;2023-03-09T03:50:32;0.43;;;0.43;;
12042;SDS011;6082;49.306;12.862;2023-03-09T03:52:58;0.70;;;0.53;;
12042;SDS011;6082;49.306;12.862;2023-03-09T03:55:24;0.70;;;0.50;;
12042;SDS011;6082;49.306;12.862;2023-03-09T03:57:50;0.63;;;0.60;;
12042;SDS011;6082;49.306;12.862;2023-03-09T04:00:16;1.03;;;0.60;;
12042;SDS011;6082;49.306;12.862;2023-03-09T04:02:45;1.80;;;0.50;;
12042;SDS011;6082;49.306;12.862;2023-03-09T04:05:12;1.77;;;0.67;;
12042;SDS011;6082;49.306;12.862;2023-03-09T04:07:38;0.47;;;0.40;;
12042;SDS011;6082;49.306;12.862;2023-03-09T04:10:04;1.07;;;0.50;;
12042;SDS011;6082;49.306;12.862;2023-03-09T04:12:30;0.70;;;0.50;;
12042;SDS011;6082;49.306;12.862;2023-03-09T04:14:56;0.47;;;0.40;;
12042;SDS011;6082;49.306;12.862;2023-03-09T04:17:22;0.70;;;0.60;;
12042;SDS011;6082;49.306;12.862;2023-03-09T04:19:49;1.07;;;0.63;;
12042;SDS011;6082;49.306;12.862;2023-03-09T04:22:15;1.43;;;0.70;;
12042;SDS011;6082;49.306;12.862;2023-03-09T04:24:41;1.33;;;0.83;;
12042;SDS011;6082;49.306;12.862;2023-03-09T04:27:07;1.17;;;0.70;;
12042;SDS011;6082;49.306;12.862;2023-03-09T04:29:33;1.53;;;0.63;;
12042;SDS011;6082;49.306;12.862;2023-03-09T04:31:59;0.67;;;0.53;;
12042;SDS011;6082;49.306;12.862;2023-03-09T04:34:25;1.00;;;0.73;;
12042;SDS011;6082;49.306;12.862;2023-03-09T04:36:51;2.60;;;0.60;;
12042;SDS011;6082;49.306;12.862;2023-03-09T04:39:17;1.03;;;0.80;;
12042;SDS011;6082;49.306;12.862;2023-03-09T04:41:43;0.63;;;0.63;;
12042;SDS011;6082;49.306;12.862;2023-03-09T04:44:09;0.50;;;0.50;;
12042;SDS011;6082;49.306;12.862;2023-03-09T04:46:35;0.50;;;0.50;;
12042;SDS011;6082;49.306;12.862;2023-03-09T04:49:01;0.30;;;0.30;;
12042;SDS011;6082;49.306;12.862;2023-03-09T04:51:27;0.30;;;0.30;;
12042;SDS011;6082;49.306;12.862;2023-03-09T04:53:54;0.87;;;0.40;;
12042;SDS011;6082;49.306;12.862;2023-03-09T04:56:20;1.70;;;0.47;;
12042;SDS011;6082;49.306;12.862;2023-03-09T04:58:46;0.30;;;0.30;;
12042;SDS011;6082;49.306;12.862;2023-03-09T05:01:13;0.23;;;0.23;;
12042;SDS011;6082;49.306;12.862;2023-03-09T05:03:39;0.33;;;0.33;;
12042;SDS011;6082;49.306;12.862;2023-03-09T05:06:05;0.50;;;0.30;;
12042;SDS011;6082;49.306;12.862;2023-03-09T05:08:31;0.20;;;0.20;;
12042;SDS011;6082;49.306;12.862;2023-03-09T05:10:58;0.70;;;0.40;;
12042;SDS011;6082;49.306;12.862;2023-03-09T05:13:24;0.60;;;0.40;;
12042;SDS011;6082;49.306;12.862;2023-03-09T05:15:50;0.50;;;0.40;;
12042;SDS011;6082;49.306;12.862;2023-03-09T05:18:16;0.37;;;0.37;;
12042;SDS011;6082;49.306;12.862;2023-03-09T05:20:42;0.93;;;0.20;;
12042;SDS011;6082;49.306;12.862;2023-03-09T05:23:08;0.67;;;0.53;;
12042;SDS011;6082;49.306;12.862;2023-03-09T05:25:34;0.50;;;0.50;;
12042;SDS011;6082;49.306;12.862;2023-03-09T05:28:00;2.17;;;0.50;;
12042;SDS011;6082;49.306;12.862;2023-03-09T05:30:27;0.30;;;0.30;;
12042;SDS011;6082;49.306;12.862;2023-03-09T05:32:53;0.73;;;0.50;;
12042;SDS011;6082;49.306;12.862;2023-03-09T05:35:20;0.30;;;0.30;;
12042;SDS011;6082;49.306;12.862;2023-03-09T05:37:46;0.50;;;0.40;;
12042;SDS011;6082;49.306;12.862;2023-03-09T05:40:12;0.40;;;0.40;;
12042;SDS011;6082;49.306;12.862;2023-03-09T05:42:39;0.40;;;0.40;;
12042;SDS011;6082;49.306;12.862;2023-03-09T05:45:05;0.40;;;0.40;;
12042;SDS011;6082;49.306;12.862;2023-03-09T05:47:31;0.43;;;0.30;;
12042;SDS011;6082;49.306;12.862;2023-03-09T05:49:57;0.67;;;0.43;;
12042;SDS011;6082;49.306;12.862;2023-03-09T05:52:23;0.30;;;0.27;;
12042;SDS011;6082;49.306;12.862;2023-03-09T05:54:49;0.47;;;0.33;;
12042;SDS011;6082;49.306;12.862;2023-03-09T05:57:16;0.20;;;0.20;;
12042;SDS011;6082;49.306;12.862;2023-03-09T05:59:42;0.40;;;0.37;;
12042;SDS011;6082;49.306;12.862;2023-03-09T06:02:08;0.60;;;0.43;;
12042;SDS011;6082;49.306;12.862;2023-03-09T06:04:34;0.40;;;0.30;;
12042;SDS011;6082;49.306;12.862;2023-03-09T06:07:00;0.57;;;0.40;;
12042;SDS011;6082;49.306;12.862;2023-03-09T06:09:27;0.30;;;0.30;;
12042;SDS011;6082;49.306;12.862;2023-03-09T06:11:53;0.70;;;0.40;;
12042;SDS011;6082;49.306;12.862;2023-03-09T06:14:19;1.00;;;0.50;;
12042;SDS011;6082;49.306;12.862;2023-03-09T06:16:45;1.60;;;0.30;;
12042;SDS011;6082;49.306;12.862;2023-03-09T06:19:11;0.43;;;0.43;;
12042;SDS011;6082;49.306;12.862;2023-03-09T06:21:37;0.60;;;0.57;;
12042;SDS011;6082;49.306;12.862;2023-03-09T06:24:03;2.33;;;0.80;;
12042;SDS011;6082;49.306;12.862;2023-03-09T06:26:30;0.77;;;0.40;;
12042;SDS011;6082;49.306;12.862;2023-03-09T06:28:56;0.30;;;0.30;;
12042;SDS011;6082;49.306;12.862;2023-03-09T06:31:22;0.80;;;0.60;;
12042;SDS011;6082;49.306;12.862;2023-03-09T06:33:48;0.40;;;0.40;;
12042;SDS011;6082;49.306;12.862;2023-03-09T06:36:15;0.97;;;0.40;;
12042;SDS011;6082;49.306;12.862;2023-03-09T06:38:42;0.60;;;0.40;;
12042;SDS011;6082;49.306;12.862;2023-03-09T06:41:08;0.83;;;0.30;;
12042;SDS011;6082;49.306;12.862;2023-03-09T06:43:34;0.30;;;0.20;;
12042;SDS011;6082;49.306;12.862;2023-03-09T06:46:01;0.40;;;0.30;;
12042;SDS011;6082;49.306;12.862;2023-03-09T06:48:27;0.50;;;0.33;;
12042;SDS011;6082;49.306;12.862;2023-03-09T06:50:53;0.83;;;0.50;;
12042;SDS011;6082;49.306;12.862;2023-03-09T06:53:19;0.30;;;0.30;;
12042;SDS011;6082;49.306;12.862;2023-03-09T06:55:45;0.73;;;0.50;;
12042;SDS011;6082;49.306;12.862;2023-03-09T06:58:11;0.73;;;0.40;;
12042;SDS011;6082;49.306;12.862;2023-03-09T07:00:37;1.93;;;1.13;;
12042;SDS011;6082;49.306;12.862;2023-03-09T07:03:06;1.10;;;0.90;;
12042;SDS011;6082;49.306;12.862;2023-03-09T07:05:34;1.30;;;0.87;;
12042;SDS011;6082;49.306;12.862;2023-03-09T07:08:00;0.73;;;0.37;;
12042;SDS011;6082;49.306;12.862;2023-03-09T07:10:29;1.17;;;0.80;;
12042;SDS011;6082;49.306;12.862;2023-03-09T07:12:55;1.40;;;0.90;;
12042;SDS011;6082;49.306;12.862;2023-03-09T07:15:21;0.90;;;0.53;;
12042;SDS011;6082;49.306;12.862;2023-03-09T07:17:47;0.47;;;0.43;;
12042;SDS011;6082;49.306;12.862;2023-03-09T07:20:13;1.63;;;0.80;;
12042;SDS011;6082;49.306;12.862;2023-03-09T07:22:39;0.80;;;0.60;;
12042;SDS011;6082;49.306;12.862;2023-03-09T07:25:06;1.30;;;0.90;;
12042;SDS011;6082;49.306;12.862;2023-03-09T07:27:32;1.70;;;0.73;;
12042;SDS011;6082;49.306;12.862;2023-03-09T07:29:58;0.73;;;0.43;;
12042;SDS011;6082;49.306;12.862;2023-03-09T07:32:24;1.27;;;0.43;;
12042;SDS011;6082;49.306;12.862;2023-03-09T07:34:50;0.20;;;0.20;;
12042;SDS011;6082;49.306;12.862;2023-03-09T07:37:16;0.60;;;0.50;;
12042;SDS011;6082;49.306;12.862;2023-03-09T07:39:43;0.87;;;0.80;;
12042;SDS011;6082;49.306;12.862;2023-03-09T07:42:09;1.20;;;0.80;;
12042;SDS011;6082;49.306;12.862;2023-03-09T07:44:35;1.07;;;0.70;;
12042;SDS011;6082;49.306;12.862;2023-03-09T07:47:01;0.60;;;0.60;;
12042;SDS011;6082;49.306;12.862;2023-03-09T07:49:28;0.60;;;0.60;;
12042;SDS011;6082;49.306;12.862;2023-03-09T07:51:54;0.50;;;0.50;;
12042;SDS011;6082;49.306;12.862;2023-03-09T07:54:21;0.93;;;0.60;;
12042;SDS011;6082;49.306;12.862;2023-03-09T07:56:47;0.50;;;0.47;;
12042;SDS011;6082;49.306;12.862;2023-03-09T07:59:16;2.53;;;1.87;;
12042;SDS011;6082;49.306;12.862;2023-03-09T08:01:42;2.90;;;2.20;;
12042;SDS011;6082;49.306;12.862;2023-03-09T08:04:09;4.47;;;1.40;;
12042;SDS011;6082;49.306;12.862;2023-03-09T08:06:38;1.80;;;1.00;;
12042;SDS011;6082;49.306;12.862;2023-03-09T08:09:05;1.00;;;0.73;;
12042;SDS011;6082;49.306;12.862;2023-03-09T08:11:31;3.07;;;0.87;;
12042;SDS011;6082;49.306;12.862;2023-03-09T08:13:58;0.60;;;0.60;;
12042;SDS011;6082;49.306;12.862;2023-03-09T08:16:24;1.87;;;1.10;;
12042;SDS011;6082;49.306;12.862;2023-03-09T08:18:50;1.33;;;0.80;;
12042;SDS011;6082;49.306;12.862;2023-03-09T08:21:17;0.80;;;0.73;;
12042;SDS011;6082;49.306;12.862;2023-03-09T08:23:43;1.20;;;0.80;;
12042;SDS011;6082;49.306;12.862;2023-03-09T08:26:13;1.00;;;0.90;;
12042;SDS011;6082;49.306;12.862;2023-03-09T08:28:39;0.70;;;0.60;;
12042;SDS011;6082;49.306;12.862;2023-03-09T08:31:05;1.90;;;0.80;;
12042;SDS011;6082;49.306;12.862;2023-03-09T08:33:31;2.70;;;0.77;;
12042;SDS011;6082;49.306;12.862;2023-03-09T08:35:57;0.70;;;0.50;;
12042;SDS011;6082;49.306;12.862;2023-03-09T08:38:23;0.90;;;0.90;;
12042;SDS011;6082;49.306;12.862;2023-03-09T08:40:50;3.57;;;0.87;;
12042;SDS011;6082;49.306;12.862;2023-03-09T08:43:16;1.63;;;1.10;;
12042;SDS011;6082;49.306;12.862;2023-03-09T08:45:42;0.60;;;0.60;;
12042;SDS011;6082;49.306;12.862;2023-03-09T08:48:08;1.53;;;1.07;;
12042;SDS011;6082;49.306;12.862;2023-03-09T08:50:34;1.40;;;0.97;;
12042;SDS011;6082;49.306;12.862;2023-03-09T08:53:00;1.30;;;1.00;;
12042;SDS011;6082;49.306;12.862;2023-03-09T08:55:26;2.37;;;1.00;;
12042;SDS011;6082;49.306;12.862;2023-03-09T08:57:53;2.70;;;1.87;;
12042;SDS011;6082;49.306;12.862;2023-03-09T09:00:19;1.57;;;1.37;;
12042;SDS011;6082;49.306;12.862;2023-03-09T09:02:45;2.00;;;1.57;;
12042;SDS011;6082;49.306;12.862;2023-03-09T09:05:12;1.70;;;1.30;;
12042;SDS011;6082;49.306;12.862;2023-03-09T09:07:38;1.27;;;1.17;;
12042;SDS011;6082;49.306;12.862;2023-03-09T09:10:06;3.07;;;1.23;;
12042;SDS011;6082;49.306;12.862;2023-03-09T09:12:32;3.57;;;2.73;;
12042;SDS011;6082;49.306;12.862;2023-03-09T09:15:02;1.90;;;1.43;;
12042;SDS011;6082;49.306;12.862;2023-03-09T09:17:28;4.43;;;2.83;;
12042;SDS011;6082;49.306;12.862;2023-03-09T09:19:54;1.80;;;1.17;;
12042;SDS011;6082;49.306;12.862;2023-03-09T09:22:20;3.43;;;2.77;;
12042;SDS011;6082;49.306;12.862;2023-03-09T09:24:46;1.53;;;1.40;;
12042;SDS011;6082;49.306;12.862;2023-03-09T09:27:12;5.43;;;1.30;;
12042;SDS011;6082;49.306;12.862;2023-03-09T09:29:39;2.33;;;1.73;;
12042;SDS011;6082;49.306;12.862;2023-03-09T09:32:06;2.93;;;1.20;;
12042;SDS011;6082;49.306;12.862;2023-03-09T09:34:33;2.03;;;0.97;;
12042;SDS011;6082;49.306;12.862;2023-03-09T09:37:00;4.27;;;1.43;;
12042;SDS011;6082;49.306;12.862;2023-03-09T09:39:29;4.63;;;1.83;;
12042;SDS011;6082;49.306;12.862;2023-03-09T09:41:59;2.30;;;1.20;;
12042;SDS011;6082;49.306;12.862;2023-03-09T09:46:59;3.10;;;1.77;;
12042;SDS011;6082;49.306;12.862;2023-03-09T09:49:26;3.83;;;1.20;;
12042;SDS011;6082;49.306;12.862;2023-03-09T09:54:28;3.03;;;0.90;;
12042;SDS011;6082;49.306;12.862;2023-03-09T09:56:58;1.40;;;1.30;;
12042;SDS011;6082;49.306;12.862;2023-03-09T10:07:14;3.53;;;1.30;;
12042;SDS011;6082;49.306;12.862;2023-03-09T10:09:41;2.77;;;0.97;;
12042;SDS011;6082;49.306;12.862;2023-03-09T10:12:10;4.87;;;2.93;;
12042;SDS011;6082;49.306;12.862;2023-03-09T10:14:48;4.40;;;1.80;;
12042;SDS011;6082;49.306;12.862;2023-03-09T10:19:51;2.63;;;1.60;;
12042;SDS011;6082;49.306;12.862;2023-03-09T10:22:21;1.73;;;0.80;;
12042;SDS011;6082;49.306;12.862;2023-03-09T10:24:48;0.93;;;0.80;;
12042;SDS011;6082;49.306;12.862;2023-03-09T10:27:31;1.63;;;0.93;;
12042;SDS011;6082;49.306;12.862;2023-03-09T10:32:31;4.90;;;1.10;;
12042;SDS011;6082;49.306;12.862;2023-03-09T10:35:06;2.80;;;0.70;;
12042;SDS011;6082;49.306;12.862;2023-03-09T10:37:35;4.53;;;1.27;;
12042;SDS011;6082;49.306;12.862;2023-03-09T10:40:02;2.73;;;1.13;;
12042;SDS011;6082;49.306;12.862;2023-03-09T10:42:32;1.17;;;1.00;;
12042;SDS011;6082;49.306;12.862;2023-03-09T10:45:18;2.43;;;1.27;;
12042;SDS011;6082;49.306;12.862;2023-03-09T10:50:13;1.93;;;1.00;;
12042;SDS011;6082;49.306;12.862;2023-03-09T10:52:40;1.87;;;0.83;;
12042;SDS011;6082;49.306;12.862;2023-03-09T10:58:30;3.70;;;1.37;;
12042;SDS011;6082;49.306;12.862;2023-03-09T11:00:46;2.00;;;1.00;;
12042;SDS011;6082;49.306;12.862;2023-03-09T11:03:15;1.30;;;1.00;;
12042;SDS011;6082;49.306;12.862;2023-03-09T11:05:45;3.97;;;0.90;;
12042;SDS011;6082;49.306;12.862;2023-03-09T11:08:11;1.63;;;0.70;;
12042;SDS011;6082;49.306;12.862;2023-03-09T11:10:46;6.00;;;1.10;;
12042;SDS011;6082;49.306;12.862;2023-03-09T11:13:18;4.70;;;1.43;;
12042;SDS011;6082;49.306;12.862;2023-03-09T11:15:44;4.27;;;1.23;;
12042;SDS011;6082;49.306;12.862;2023-03-09T11:18:29;3.83;;;1.33;;
12042;SDS011;6082;49.306;12.862;2023-03-09T11:20:55;2.37;;;1.20;;
12042;SDS011;6082;49.306;12.862;2023-03-09T11:31:31;4.97;;;1.17;;
12042;SDS011;6082;49.306;12.862;2023-03-09T11:33:58;3.23;;;0.90;;
12042;SDS011;6082;49.306;12.862;2023-03-09T11:36:26;2.97;;;1.40;;
12042;SDS011;6082;49.306;12.862;2023-03-09T11:38:54;2.70;;;0.70;;
12042;SDS011;6082;49.306;12.862;2023-03-09T11:41:33;4.43;;;1.07;;
12042;SDS011;6082;49.306;12.862;2023-03-09T11:44:02;3.03;;;1.00;;
12042;SDS011;6082;49.306;12.862;2023-03-09T11:46:31;1.43;;;0.90;;
12042;SDS011;6082;49.306;12.862;2023-03-09T11:49:04;1.50;;;1.10;;
12042;SDS011;6082;49.306;12.862;2023-03-09T11:51:34;4.03;;;1.33;;
12042;SDS011;6082;49.306;12.862;2023-03-09T11:54:05;3.43;;;1.57;;
12042;SDS011;6082;49.306;12.862;2023-03-09T11:56:35;3.83;;;1.07;;
12042;SDS011;6082;49.306;12.862;2023-03-09T12:01:52;4.97;;;1.13;;
12042;SDS011;6082;49.306;12.862;2023-03-09T12:04:21;3.90;;;1.00;;
12042;SDS011;6082;49.306;12.862;2023-03-09T12:09:35;2.93;;;1.17;;
12042;SDS011;6082;49.306;12.862;2023-03-09T12:12:07;4.60;;;1.07;;
12042;SDS011;6082;49.306;12.862;2023-03-09T12:14:41;2.43;;;1.00;;
12042;SDS011;6082;49.306;12.862;2023-03-09T12:17:15;2.67;;;1.00;;
12042;SDS011;6082;49.306;12.862;2023-03-09T12:19:44;3.33;;;0.80;;
12042;SDS011;6082;49.306;12.862;2023-03-09T12:22:29;4.47;;;1.60;;
12042;SDS011;6082;49.306;12.862;2023-03-09T12:24:59;4.67;;;1.40;;
12042;SDS011;6082;49.306;12.862;2023-03-09T12:27:27;3.23;;;1.10;;
12042;SDS011;6082;49.306;12.862;2023-03-09T12:32:40;3.20;;;1.10;;
12042;SDS011;6082;49.306;12.862;2023-03-09T12:35:11;2.23;;;1.10;;
12042;SDS011;6082;49.306;12.862;2023-03-09T12:37:39;2.90;;;1.00;;
12042;SDS011;6082;49.306;12.862;2023-03-09T12:42:42;1.57;;;1.10;;
12042;SDS011;6082;49.306;12.862;2023-03-09T12:55:17;3.23;;;0.90;;
12042;SDS011;6082;49.306;12.862;2023-03-09T12:57:44;1.37;;;0.73;;
12042;SDS011;6082;49.306;12.862;2023-03-09T13:00:28;1.97;;;1.20;;
12042;SDS011;6082;49.306;12.862;2023-03-09T13:03:17;1.40;;;1.07;;
12042;SDS011;6082;49.306;12.862;2023-03-09T13:08:40;1.43;;;1.00;;
12042;SDS011;6082;49.306;12.862;2023-03-09T13:19:26;1.03;;;0.90;;
12042;SDS011;6082;49.306;12.862;2023-03-09T13:21:38;1.07;;;0.90;;
12042;SDS011;6082;49.306;12.862;2023-03-09T13:24:10;1.83;;;1.30;;
12042;SDS011;6082;49.306;12.862;2023-03-09T13:26:37;5.33;;;3.40;;
12042;SDS011;6082;49.306;12.862;2023-03-09T13:29:08;7.60;;;4.60;;
12042;SDS011;6082;49.306;12.862;2023-03-09T13:31:34;4.37;;;2.90;;
12042;SDS011;6082;49.306;12.862;2023-03-09T13:34:02;2.83;;;1.80;;
12042;SDS011;6082;49.306;12.862;2023-03-09T13:36:29;5.53;;;3.03;;
12042;SDS011;6082;49.306;12.862;2023-03-09T13:39:00;3.07;;;2.20;;
12042;SDS011;6082;49.306;12.862;2023-03-09T13:41:30;1.67;;;1.30;;
12042;SDS011;6082;49.306;12.862;2023-03-09T13:43:57;5.80;;;1.60;;
12042;SDS011;6082;49.306;12.862;2023-03-09T13:48:51;3.70;;;1.50;;
12042;SDS011;6082;49.306;12.862;2023-03-09T13:51:22;2.07;;;1.20;;
12042;SDS011;6082;49.306;12.862;2023-03-09T13:53:49;1.53;;;1.07;;
12042;SDS011;6082;49.306;12.862;2023-03-09T13:56:15;2.10;;;1.90;;
12042;SDS011;6082;49.306;12.862;2023-03-09T13:58:42;1.47;;;1.30;;
12042;SDS011;6082;49.306;12.862;2023-03-09T14:01:22;3.03;;;1.43;;
12042;SDS011;6082;49.306;12.862;2023-03-09T14:03:49;3.20;;;2.10;;
12042;SDS011;6082;49.306;12.862;2023-03-09T14:06:17;3.33;;;2.10;;
12042;SDS011;6082;49.306;12.862;2023-03-09T14:08:47;1.47;;;1.20;;
12042;SDS011;6082;49.306;12.862;2023-03-09T14:11:20;1.63;;;1.10;;
12042;SDS011;6082;49.306;12.862;2023-03-09T14:13:52;1.80;;;0.80;;
12042;SDS011;6082;49.306;12.862;2023-03-09T14:16:26;3.33;;;1.13;;
12042;SDS011;6082;49.306;12.862;2023-03-09T14:18:53;1.20;;;0.93;;
12042;SDS011;6082;49.306;12.862;2023-03-09T14:21:24;1.30;;;0.90;;
12042;SDS011;6082;49.306;12.862;2023-03-09T14:23:51;4.63;;;2.00;;
12042;SDS011;6082;49.306;12.862;2023-03-09T14:26:28;7.33;;;2.80;;
12042;SDS011;6082;49.306;12.862;2023-03-09T14:28:59;2.47;;;1.20;;
12042;SDS011;6082;49.306;12.862;2023-03-09T14:31:25;2.30;;;1.10;;
12042;SDS011;6082;49.306;12.862;2023-03-09T14:34:05;1.83;;;0.97;;
12042;SDS011;6082;49.306;12.862;2023-03-09T14:36:38;2.43;;;1.17;;
12042;SDS011;6082;49.306;12.862;2023-03-09T14:39:10;2.90;;;1.40;;
12042;SDS011;6082;49.306;12.862;2023-03-09T14:41:45;1.47;;;1.13;;
12042;SDS011;6082;49.306;12.862;2023-03-09T14:44:27;3.00;;;2.20;;
12042;SDS011;6082;49.306;12.862;2023-03-09T14:46:53;7.13;;;5.77;;
12042;SDS011;6082;49.306;12.862;2023-03-09T14:49:19;4.30;;;2.80;;
12042;SDS011;6082;49.306;12.862;2023-03-09T14:51:45;1.83;;;1.53;;
12042;SDS011;6082;49.306;12.862;2023-03-09T14:54:12;5.30;;;2.03;;
12042;SDS011;6082;49.306;12.862;2023-03-09T14:56:39;1.43;;;1.30;;
12042;SDS011;6082;49.306;12.862;2023-03-09T14:59:16;2.23;;;1.83;;
12042;SDS011;6082;49.306;12.862;2023-03-09T15:01:43;2.00;;;1.60;;
12042;SDS011;6082;49.306;12.862;2023-03-09T15:04:14;2.10;;;1.10;;
12042;SDS011;6082;49.306;12.862;2023-03-09T15:06:41;1.60;;;1.50;;
12042;SDS011;6082;49.306;12.862;2023-03-09T15:09:08;1.20;;;1.10;;
12042;SDS011;6082;49.306;12.862;2023-03-09T15:11:34;1.37;;;0.77;;
12042;SDS011;6082;49.306;12.862;2023-03-09T15:14:01;3.13;;;1.23;;
12042;SDS011;6082;49.306;12.862;2023-03-09T15:16:30;0.83;;;0.40;;
12042;SDS011;6082;49.306;12.862;2023-03-09T15:18:56;1.10;;;1.00;;
12042;SDS011;6082;49.306;12.862;2023-03-09T15:21:22;3.10;;;2.20;;
12042;SDS011;6082;49.306;12.862;2023-03-09T15:23:48;1.63;;;1.20;;
12042;SDS011;6082;49.306;12.862;2023-03-09T15:26:14;3.33;;;1.10;;
12042;SDS011;6082;49.306;12.862;2023-03-09T15:28:40;1.10;;;0.70;;
12042;SDS011;6082;49.306;12.862;2023-03-09T15:31:07;1.53;;;1.07;;
12042;SDS011;6082;49.306;12.862;2023-03-09T15:33:34;0.93;;;0.67;;
12042;SDS011;6082;49.306;12.862;2023-03-09T15:36:00;0.93;;;0.60;;
12042;SDS011;6082;49.306;12.862;2023-03-09T15:38:29;1.90;;;0.70;;
12042;SDS011;6082;49.306;12.862;2023-03-09T15:40:55;0.63;;;0.60;;
12042;SDS011;6082;49.306;12.862;2023-03-09T15:43:21;0.90;;;0.70;;
12042;SDS011;6082;49.306;12.862;2023-03-09T15:45:47;1.00;;;0.70;;
12042;SDS011;6082;49.306;12.862;2023-03-09T15:48:13;1.13;;;0.80;;
12042;SDS011;6082;49.306;12.862;2023-03-09T15:50:39;0.60;;;0.60;;
12042;SDS011;6082;49.306;12.862;2023-03-09T15:53:06;1.30;;;0.93;;
12042;SDS011;6082;49.306;12.862;2023-03-09T15:55:33;2.57;;;0.90;;
12042;SDS011;6082;49.306;12.862;2023-03-09T15:57:59;1.67;;;0.80;;
12042;SDS011;6082;49.306;12.862;2023-03-09T16:00:25;0.53;;;0.53;;
12042;SDS011;6082;49.306;12.862;2023-03-09T16:02:57;0.80;;;0.50;;
12042;SDS011;6082;49.306;12.862;2023-03-09T16:05:23;0.93;;;0.70;;
12042;SDS011;6082;49.306;12.862;2023-03-09T16:07:49;1.10;;;0.83;;
12042;SDS011;6082;49.306;12.862;2023-03-09T16:10:15;2.20;;;1.00;;